sensor_id;sensor_type;location;lat;lon;timestamp;P1;durP1;ratioP1;P2;durP2;ratioP2
8526;SDS011;4301;48.362;8.478;2023-06-10T00:01:42;9.60;;;8.60;;
8526;SDS011;4301;48.362;8.478;2023-06-10T00:04:12;9.90;;;8.90;;
8526;SDS011;4301;48.362;8.478;2023-06-10T00:06:39;11.77;;;8.60;;
8526;SDS011;4301;48.362;8.478;2023-06-10T00:09:06;7.90;;;7.20;;
8526;SDS011;4301;48.362;8.478;2023-06-10T00:11:36;8.30;;;7.50;;
8526;SDS011;4301;48.362;8.478;2023-06-10T00:14:04;8.00;;;7.20;;
8526;SDS011;4301;48.362;8.478;2023-06-10T00:16:31;8.07;;;7.37;;
8526;SDS011;4301;48.362;8.478;2023-06-10T00:18:58;9.10;;;7.20;;
8526;SDS011;4301;48.362;8.478;2023-06-10T00:21:26;8.87;;;7.40;;
8526;SDS011;4301;48.362;8.478;2023-06-10T00:23:54;9.13;;;8.23;;
8526;SDS011;4301;48.362;8.478;2023-06-10T00:26:21;10.43;;;9.43;;
8526;SDS011;4301;48.362;8.478;2023-06-10T00:28:49;10.90;;;9.80;;
8526;SDS011;4301;48.362;8.478;2023-06-10T00:31:17;12.90;;;10.83;;
8526;SDS011;4301;48.362;8.478;2023-06-10T00:33:44;14.67;;;12.90;;
8526;SDS011;4301;48.362;8.478;2023-06-10T00:36:11;15.23;;;13.63;;
8526;SDS011;4301;48.362;8.478;2023-06-10T00:38:38;14.67;;;10.90;;
8526;SDS011;4301;48.362;8.478;2023-06-10T00:41:06;13.63;;;12.23;;
8526;SDS011;4301;48.362;8.478;2023-06-10T00:43:33;12.17;;;10.97;;
8526;SDS011;4301;48.362;8.478;2023-06-10T00:46:01;10.23;;;9.23;;
8526;SDS011;4301;48.362;8.478;2023-06-10T00:48:28;10.47;;;9.47;;
8526;SDS011;4301;48.362;8.478;2023-06-10T00:50:55;11.37;;;9.40;;
8526;SDS011;4301;48.362;8.478;2023-06-10T00:53:23;10.37;;;9.37;;
8526;SDS011;4301;48.362;8.478;2023-06-10T01:02:36;7.73;;;7.03;;
8526;SDS011;4301;48.362;8.478;2023-06-10T01:05:03;8.30;;;7.53;;
8526;SDS011;4301;48.362;8.478;2023-06-10T01:07:33;8.40;;;7.47;;
8526;SDS011;4301;48.362;8.478;2023-06-10T01:10:05;8.23;;;7.43;;
8526;SDS011;4301;48.362;8.478;2023-06-10T01:12:39;8.70;;;7.90;;
8526;SDS011;4301;48.362;8.478;2023-06-10T01:15:13;9.97;;;7.50;;
8526;SDS011;4301;48.362;8.478;2023-06-10T01:17:54;8.27;;;7.50;;
8526;SDS011;4301;48.362;8.478;2023-06-10T01:20:22;9.13;;;8.30;;
8526;SDS011;4301;48.362;8.478;2023-06-10T01:22:53;8.43;;;7.63;;
8526;SDS011;4301;48.362;8.478;2023-06-10T01:25:20;8.67;;;7.87;;
8526;SDS011;4301;48.362;8.478;2023-06-10T01:27:53;8.97;;;8.10;;
8526;SDS011;4301;48.362;8.478;2023-06-10T01:30:26;8.50;;;7.57;;
8526;SDS011;4301;48.362;8.478;2023-06-10T01:32:58;8.87;;;8.00;;
8526;SDS011;4301;48.362;8.478;2023-06-10T01:35:27;8.80;;;7.90;;
8526;SDS011;4301;48.362;8.478;2023-06-10T01:37:58;10.20;;;7.73;;
8526;SDS011;4301;48.362;8.478;2023-06-10T01:40:26;11.13;;;8.27;;
8526;SDS011;4301;48.362;8.478;2023-06-10T01:42:54;9.57;;;8.37;;
8526;SDS011;4301;48.362;8.478;2023-06-10T01:45:20;8.83;;;8.03;;
8526;SDS011;4301;48.362;8.478;2023-06-10T01:47:47;8.83;;;8.03;;
8526;SDS011;4301;48.362;8.478;2023-06-10T01:50:14;8.53;;;7.63;;
8526;SDS011;4301;48.362;8.478;2023-06-10T01:52:42;8.27;;;7.47;;
8526;SDS011;4301;48.362;8.478;2023-06-10T01:55:10;8.43;;;7.63;;
8526;SDS011;4301;48.362;8.478;2023-06-10T01:57:37;9.30;;;8.40;;
8526;SDS011;4301;48.362;8.478;2023-06-10T02:00:04;8.57;;;7.33;;
8526;SDS011;4301;48.362;8.478;2023-06-10T02:02:33;8.33;;;7.53;;
8526;SDS011;4301;48.362;8.478;2023-06-10T02:05:00;9.67;;;8.63;;
8526;SDS011;4301;48.362;8.478;2023-06-10T02:07:26;8.90;;;8.00;;
8526;SDS011;4301;48.362;8.478;2023-06-10T02:09:53;9.67;;;8.73;;
8526;SDS011;4301;48.362;8.478;2023-06-10T02:12:22;9.43;;;8.53;;
8526;SDS011;4301;48.362;8.478;2023-06-10T02:14:49;9.10;;;8.27;;
8526;SDS011;4301;48.362;8.478;2023-06-10T02:17:15;9.67;;;8.50;;
8526;SDS011;4301;48.362;8.478;2023-06-10T02:19:43;9.07;;;8.17;;
8526;SDS011;4301;48.362;8.478;2023-06-10T02:22:17;8.97;;;8.10;;
8526;SDS011;4301;48.362;8.478;2023-06-10T02:24:45;9.10;;;8.20;;
8526;SDS011;4301;48.362;8.478;2023-06-10T02:27:13;9.57;;;7.70;;
8526;SDS011;4301;48.362;8.478;2023-06-10T02:29:42;8.60;;;7.80;;
8526;SDS011;4301;48.362;8.478;2023-06-10T02:32:09;9.00;;;8.10;;
8526;SDS011;4301;48.362;8.478;2023-06-10T02:34:36;10.10;;;9.10;;
8526;SDS011;4301;48.362;8.478;2023-06-10T02:37:03;9.23;;;8.33;;
8526;SDS011;4301;48.362;8.478;2023-06-10T02:39:30;10.03;;;9.00;;
8526;SDS011;4301;48.362;8.478;2023-06-10T02:41:57;9.97;;;8.30;;
8526;SDS011;4301;48.362;8.478;2023-06-10T02:44:24;10.40;;;9.40;;
8526;SDS011;4301;48.362;8.478;2023-06-10T02:46:53;9.20;;;8.40;;
8526;SDS011;4301;48.362;8.478;2023-06-10T02:49:20;9.73;;;8.37;;
8526;SDS011;4301;48.362;8.478;2023-06-10T02:51:47;9.13;;;8.23;;
8526;SDS011;4301;48.362;8.478;2023-06-10T02:54:13;9.23;;;8.37;;
8526;SDS011;4301;48.362;8.478;2023-06-10T02:56:41;9.30;;;8.37;;
8526;SDS011;4301;48.362;8.478;2023-06-10T02:59:08;9.63;;;8.73;;
8526;SDS011;4301;48.362;8.478;2023-06-10T03:01:35;10.90;;;7.87;;
8526;SDS011;4301;48.362;8.478;2023-06-10T03:04:04;10.03;;;9.03;;
8526;SDS011;4301;48.362;8.478;2023-06-10T03:06:31;9.20;;;8.30;;
8526;SDS011;4301;48.362;8.478;2023-06-10T03:09:00;9.50;;;8.57;;
8526;SDS011;4301;48.362;8.478;2023-06-10T03:11:29;10.60;;;8.97;;
8526;SDS011;4301;48.362;8.478;2023-06-10T03:13:56;9.03;;;8.13;;
8526;SDS011;4301;48.362;8.478;2023-06-10T03:16:23;10.83;;;9.17;;
8526;SDS011;4301;48.362;8.478;2023-06-10T03:18:52;11.30;;;9.23;;
8526;SDS011;4301;48.362;8.478;2023-06-10T03:21:21;10.07;;;8.67;;
8526;SDS011;4301;48.362;8.478;2023-06-10T03:23:48;10.57;;;9.57;;
8526;SDS011;4301;48.362;8.478;2023-06-10T03:26:15;9.53;;;8.73;;
8526;SDS011;4301;48.362;8.478;2023-06-10T03:28:42;9.80;;;8.83;;
8526;SDS011;4301;48.362;8.478;2023-06-10T03:31:09;10.00;;;8.27;;
8526;SDS011;4301;48.362;8.478;2023-06-10T03:33:35;10.23;;;9.10;;
8526;SDS011;4301;48.362;8.478;2023-06-10T03:36:03;9.57;;;8.67;;
8526;SDS011;4301;48.362;8.478;2023-06-10T03:38:31;9.43;;;8.53;;
8526;SDS011;4301;48.362;8.478;2023-06-10T03:40:58;10.30;;;9.10;;
8526;SDS011;4301;48.362;8.478;2023-06-10T03:43:25;9.57;;;8.67;;
8526;SDS011;4301;48.362;8.478;2023-06-10T03:45:52;9.40;;;8.50;;
8526;SDS011;4301;48.362;8.478;2023-06-10T03:48:19;9.87;;;8.87;;
8526;SDS011;4301;48.362;8.478;2023-06-10T03:50:46;9.80;;;8.80;;
8526;SDS011;4301;48.362;8.478;2023-06-10T03:53:15;9.40;;;8.60;;
8526;SDS011;4301;48.362;8.478;2023-06-10T03:55:44;9.70;;;8.70;;
8526;SDS011;4301;48.362;8.478;2023-06-10T03:58:11;9.60;;;8.70;;
8526;SDS011;4301;48.362;8.478;2023-06-10T04:00:40;10.10;;;9.10;;
8526;SDS011;4301;48.362;8.478;2023-06-10T04:03:07;9.40;;;8.50;;
8526;SDS011;4301;48.362;8.478;2023-06-10T04:05:39;10.50;;;8.47;;
8526;SDS011;4301;48.362;8.478;2023-06-10T04:08:07;9.53;;;8.63;;
8526;SDS011;4301;48.362;8.478;2023-06-10T04:10:34;9.93;;;8.97;;
8526;SDS011;4301;48.362;8.478;2023-06-10T04:13:02;9.97;;;9.00;;
8526;SDS011;4301;48.362;8.478;2023-06-10T04:15:30;9.93;;;9.00;;
8526;SDS011;4301;48.362;8.478;2023-06-10T04:17:58;9.53;;;8.63;;
8526;SDS011;4301;48.362;8.478;2023-06-10T04:20:26;9.70;;;8.70;;
8526;SDS011;4301;48.362;8.478;2023-06-10T04:22:53;9.27;;;8.10;;
8526;SDS011;4301;48.362;8.478;2023-06-10T04:25:20;11.27;;;8.93;;
8526;SDS011;4301;48.362;8.478;2023-06-10T04:27:47;10.07;;;8.67;;
8526;SDS011;4301;48.362;8.478;2023-06-10T04:30:16;9.90;;;8.90;;
8526;SDS011;4301;48.362;8.478;2023-06-10T04:32:43;10.70;;;9.70;;
8526;SDS011;4301;48.362;8.478;2023-06-10T04:35:11;9.60;;;8.70;;
8526;SDS011;4301;48.362;8.478;2023-06-10T04:37:39;9.73;;;8.83;;
8526;SDS011;4301;48.362;8.478;2023-06-10T04:40:06;9.67;;;8.67;;
8526;SDS011;4301;48.362;8.478;2023-06-10T04:42:34;9.70;;;8.70;;
8526;SDS011;4301;48.362;8.478;2023-06-10T04:45:01;9.90;;;8.90;;
8526;SDS011;4301;48.362;8.478;2023-06-10T04:47:30;11.30;;;9.33;;
8526;SDS011;4301;48.362;8.478;2023-06-10T04:49:58;9.67;;;8.70;;
8526;SDS011;4301;48.362;8.478;2023-06-10T04:52:25;10.00;;;8.57;;
8526;SDS011;4301;48.362;8.478;2023-06-10T04:54:52;9.57;;;8.67;;
8526;SDS011;4301;48.362;8.478;2023-06-10T04:57:20;11.23;;;8.97;;
8526;SDS011;4301;48.362;8.478;2023-06-10T04:59:47;9.00;;;8.10;;
8526;SDS011;4301;48.362;8.478;2023-06-10T05:02:13;9.95;;;9.05;;
8526;SDS011;4301;48.362;8.478;2023-06-10T05:04:42;10.93;;;9.13;;
8526;SDS011;4301;48.362;8.478;2023-06-10T05:07:09;9.40;;;8.50;;
8526;SDS011;4301;48.362;8.478;2023-06-10T05:09:36;9.47;;;7.97;;
8526;SDS011;4301;48.362;8.478;2023-06-10T05:12:03;9.13;;;8.23;;
8526;SDS011;4301;48.362;8.478;2023-06-10T05:14:31;9.57;;;8.67;;
8526;SDS011;4301;48.362;8.478;2023-06-10T05:16:58;9.33;;;8.43;;
8526;SDS011;4301;48.362;8.478;2023-06-10T05:19:25;8.67;;;7.90;;
8526;SDS011;4301;48.362;8.478;2023-06-10T05:21:53;9.20;;;8.30;;
8526;SDS011;4301;48.362;8.478;2023-06-10T05:24:20;10.43;;;8.70;;
8526;SDS011;4301;48.362;8.478;2023-06-10T05:26:48;8.93;;;8.13;;
8526;SDS011;4301;48.362;8.478;2023-06-10T05:29:15;9.13;;;8.03;;
8526;SDS011;4301;48.362;8.478;2023-06-10T05:31:42;9.25;;;8.40;;
8526;SDS011;4301;48.362;8.478;2023-06-10T05:34:09;9.23;;;8.43;;
8526;SDS011;4301;48.362;8.478;2023-06-10T05:36:36;9.43;;;8.53;;
8526;SDS011;4301;48.362;8.478;2023-06-10T05:39:04;9.40;;;8.40;;
8526;SDS011;4301;48.362;8.478;2023-06-10T05:41:31;9.53;;;8.57;;
8526;SDS011;4301;48.362;8.478;2023-06-10T05:43:58;8.90;;;8.10;;
8526;SDS011;4301;48.362;8.478;2023-06-10T05:46:25;9.17;;;8.37;;
8526;SDS011;4301;48.362;8.478;2023-06-10T05:48:52;9.63;;;8.13;;
8526;SDS011;4301;48.362;8.478;2023-06-10T05:51:19;9.43;;;8.43;;
8526;SDS011;4301;48.362;8.478;2023-06-10T05:53:46;9.50;;;8.70;;
8526;SDS011;4301;48.362;8.478;2023-06-10T05:56:14;11.00;;;9.67;;
8526;SDS011;4301;48.362;8.478;2023-06-10T05:58:41;11.33;;;10.13;;
8526;SDS011;4301;48.362;8.478;2023-06-10T06:01:08;11.13;;;9.97;;
8526;SDS011;4301;48.362;8.478;2023-06-10T06:03:35;10.40;;;9.40;;
8526;SDS011;4301;48.362;8.478;2023-06-10T06:06:02;11.13;;;9.93;;
8526;SDS011;4301;48.362;8.478;2023-06-10T06:08:29;11.27;;;9.97;;
8526;SDS011;4301;48.362;8.478;2023-06-10T06:10:56;10.43;;;9.40;;
8526;SDS011;4301;48.362;8.478;2023-06-10T06:13:25;10.60;;;9.50;;
8526;SDS011;4301;48.362;8.478;2023-06-10T06:15:52;10.37;;;9.47;;
8526;SDS011;4301;48.362;8.478;2023-06-10T06:18:19;10.80;;;9.70;;
8526;SDS011;4301;48.362;8.478;2023-06-10T06:20:45;10.23;;;9.23;;
8526;SDS011;4301;48.362;8.478;2023-06-10T06:23:12;9.83;;;8.90;;
8526;SDS011;4301;48.362;8.478;2023-06-10T06:25:39;8.43;;;7.50;;
8526;SDS011;4301;48.362;8.478;2023-06-10T06:28:06;8.43;;;7.60;;
8526;SDS011;4301;48.362;8.478;2023-06-10T06:30:35;9.70;;;7.17;;
8526;SDS011;4301;48.362;8.478;2023-06-10T06:33:02;8.67;;;7.77;;
8526;SDS011;4301;48.362;8.478;2023-06-10T06:35:30;7.93;;;7.23;;
8526;SDS011;4301;48.362;8.478;2023-06-10T06:37:57;8.53;;;6.77;;
8526;SDS011;4301;48.362;8.478;2023-06-10T06:40:25;7.33;;;6.73;;
8526;SDS011;4301;48.362;8.478;2023-06-10T06:42:51;7.80;;;7.03;;
8526;SDS011;4301;48.362;8.478;2023-06-10T06:45:18;6.80;;;6.20;;
8526;SDS011;4301;48.362;8.478;2023-06-10T06:47:47;7.33;;;6.63;;
8526;SDS011;4301;48.362;8.478;2023-06-10T06:50:14;6.90;;;6.30;;
8526;SDS011;4301;48.362;8.478;2023-06-10T06:52:41;7.27;;;6.57;;
8526;SDS011;4301;48.362;8.478;2023-06-10T06:55:08;6.93;;;6.33;;
8526;SDS011;4301;48.362;8.478;2023-06-10T06:57:35;7.13;;;6.53;;
8526;SDS011;4301;48.362;8.478;2023-06-10T07:00:03;7.00;;;6.40;;
8526;SDS011;4301;48.362;8.478;2023-06-10T07:02:30;7.50;;;6.83;;
8526;SDS011;4301;48.362;8.478;2023-06-10T07:04:59;6.97;;;6.30;;
8526;SDS011;4301;48.362;8.478;2023-06-10T07:07:26;6.73;;;6.20;;
8526;SDS011;4301;48.362;8.478;2023-06-10T07:09:53;7.27;;;6.60;;
8526;SDS011;4301;48.362;8.478;2023-06-10T07:12:20;6.90;;;6.30;;
8526;SDS011;4301;48.362;8.478;2023-06-10T07:14:49;6.70;;;6.10;;
8526;SDS011;4301;48.362;8.478;2023-06-10T07:17:16;6.35;;;5.85;;
8526;SDS011;4301;48.362;8.478;2023-06-10T07:19:43;6.50;;;6.00;;
8526;SDS011;4301;48.362;8.478;2023-06-10T07:22:11;7.50;;;6.75;;
8526;SDS011;4301;48.362;8.478;2023-06-10T07:24:38;7.32;;;6.07;;
8526;SDS011;4301;48.362;8.478;2023-06-10T07:27:06;7.00;;;6.40;;
8526;SDS011;4301;48.362;8.478;2023-06-10T07:29:33;6.35;;;5.75;;
8526;SDS011;4301;48.362;8.478;2023-06-10T07:32:01;6.70;;;6.10;;
8526;SDS011;4301;48.362;8.478;2023-06-10T07:34:28;6.22;;;5.72;;
8526;SDS011;4301;48.362;8.478;2023-06-10T07:36:55;6.20;;;5.70;;
8526;SDS011;4301;48.362;8.478;2023-06-10T07:39:23;6.35;;;5.85;;
8526;SDS011;4301;48.362;8.478;2023-06-10T07:41:50;5.90;;;5.40;;
8526;SDS011;4301;48.362;8.478;2023-06-10T07:44:18;5.93;;;5.43;;
8526;SDS011;4301;48.362;8.478;2023-06-10T07:46:45;6.10;;;5.50;;
8526;SDS011;4301;48.362;8.478;2023-06-10T07:49:12;5.90;;;5.40;;
8526;SDS011;4301;48.362;8.478;2023-06-10T07:51:40;6.50;;;5.72;;
8526;SDS011;4301;48.362;8.478;2023-06-10T07:54:07;6.07;;;5.57;;
8526;SDS011;4301;48.362;8.478;2023-06-10T07:56:35;6.65;;;6.05;;
8526;SDS011;4301;48.362;8.478;2023-06-10T07:59:02;6.03;;;5.53;;
8526;SDS011;4301;48.362;8.478;2023-06-10T08:01:29;6.22;;;5.70;;
8526;SDS011;4301;48.362;8.478;2023-06-10T08:03:56;6.68;;;6.07;;
8526;SDS011;4301;48.362;8.478;2023-06-10T08:06:23;6.38;;;5.78;;
8526;SDS011;4301;48.362;8.478;2023-06-10T08:08:50;5.95;;;5.45;;
8526;SDS011;4301;48.362;8.478;2023-06-10T08:11:17;6.25;;;5.75;;
8526;SDS011;4301;48.362;8.478;2023-06-10T08:13:46;6.72;;;6.15;;
8526;SDS011;4301;48.362;8.478;2023-06-10T08:16:14;6.30;;;5.80;;
8526;SDS011;4301;48.362;8.478;2023-06-10T08:18:41;6.55;;;5.97;;
8526;SDS011;4301;48.362;8.478;2023-06-10T08:21:08;5.90;;;5.40;;
8526;SDS011;4301;48.362;8.478;2023-06-10T08:23:35;6.60;;;6.10;;
8526;SDS011;4301;48.362;8.478;2023-06-10T08:26:02;6.20;;;5.70;;
8526;SDS011;4301;48.362;8.478;2023-06-10T08:28:29;6.43;;;5.85;;
8526;SDS011;4301;48.362;8.478;2023-06-10T08:30:57;6.32;;;5.80;;
8526;SDS011;4301;48.362;8.478;2023-06-10T08:33:24;6.38;;;5.88;;
8526;SDS011;4301;48.362;8.478;2023-06-10T08:35:51;5.60;;;5.10;;
8526;SDS011;4301;48.362;8.478;2023-06-10T08:38:17;6.53;;;5.93;;
8526;SDS011;4301;48.362;8.478;2023-06-10T08:40:44;6.47;;;5.97;;
8526;SDS011;4301;48.362;8.478;2023-06-10T08:43:15;6.28;;;5.78;;
8526;SDS011;4301;48.362;8.478;2023-06-10T08:45:47;6.18;;;5.57;;
8526;SDS011;4301;48.362;8.478;2023-06-10T08:48:16;6.03;;;5.53;;
8526;SDS011;4301;48.362;8.478;2023-06-10T08:50:45;6.00;;;5.50;;
8526;SDS011;4301;48.362;8.478;2023-06-10T08:53:13;6.45;;;5.82;;
8526;SDS011;4301;48.362;8.478;2023-06-10T08:55:46;6.47;;;5.88;;
8526;SDS011;4301;48.362;8.478;2023-06-10T08:58:16;6.45;;;5.95;;
8526;SDS011;4301;48.362;8.478;2023-06-10T09:00:43;6.70;;;6.10;;
8526;SDS011;4301;48.362;8.478;2023-06-10T09:03:11;6.07;;;5.57;;
8526;SDS011;4301;48.362;8.478;2023-06-10T09:05:39;7.00;;;6.40;;
8526;SDS011;4301;48.362;8.478;2023-06-10T09:08:08;6.95;;;6.35;;
8526;SDS011;4301;48.362;8.478;2023-06-10T09:10:35;6.07;;;5.57;;
8526;SDS011;4301;48.362;8.478;2023-06-10T09:13:02;6.38;;;5.85;;
8526;SDS011;4301;48.362;8.478;2023-06-10T09:15:29;6.15;;;5.60;;
8526;SDS011;4301;48.362;8.478;2023-06-10T09:17:56;5.97;;;5.57;;
8526;SDS011;4301;48.362;8.478;2023-06-10T09:20:23;5.72;;;5.22;;
8526;SDS011;4301;48.362;8.478;2023-06-10T09:22:51;6.40;;;5.90;;
8526;SDS011;4301;48.362;8.478;2023-06-10T09:25:19;7.40;;;6.00;;
8526;SDS011;4301;48.362;8.478;2023-06-10T09:28:00;6.10;;;5.60;;
8526;SDS011;4301;48.362;8.478;2023-06-10T09:30:27;6.13;;;5.63;;
8526;SDS011;4301;48.362;8.478;2023-06-10T09:32:55;6.30;;;5.70;;
8526;SDS011;4301;48.362;8.478;2023-06-10T09:35:22;6.28;;;5.78;;
8526;SDS011;4301;48.362;8.478;2023-06-10T09:37:52;5.70;;;5.20;;
8526;SDS011;4301;48.362;8.478;2023-06-10T09:40:20;5.47;;;5.07;;
8526;SDS011;4301;48.362;8.478;2023-06-10T09:42:52;5.22;;;4.82;;
8526;SDS011;4301;48.362;8.478;2023-06-10T09:45:20;5.32;;;4.82;;
8526;SDS011;4301;48.362;8.478;2023-06-10T09:47:47;5.25;;;4.72;;
8526;SDS011;4301;48.362;8.478;2023-06-10T09:50:18;4.78;;;4.43;;
8526;SDS011;4301;48.362;8.478;2023-06-10T09:52:45;5.07;;;4.68;;
8526;SDS011;4301;48.362;8.478;2023-06-10T09:55:14;4.40;;;4.00;;
8526;SDS011;4301;48.362;8.478;2023-06-10T09:57:41;4.47;;;4.18;;
8526;SDS011;4301;48.362;8.478;2023-06-10T10:00:14;5.57;;;5.07;;
8526;SDS011;4301;48.362;8.478;2023-06-10T10:02:45;4.90;;;4.50;;
8526;SDS011;4301;48.362;8.478;2023-06-10T10:05:13;4.90;;;4.53;;
8526;SDS011;4301;48.362;8.478;2023-06-10T10:07:40;5.20;;;4.78;;
8526;SDS011;4301;48.362;8.478;2023-06-10T10:10:08;5.35;;;4.82;;
8526;SDS011;4301;48.362;8.478;2023-06-10T10:12:37;5.88;;;5.28;;
8526;SDS011;4301;48.362;8.478;2023-06-10T10:15:05;5.70;;;5.30;;
8526;SDS011;4301;48.362;8.478;2023-06-10T10:17:34;5.38;;;4.97;;
8526;SDS011;4301;48.362;8.478;2023-06-10T10:20:03;5.75;;;5.15;;
8526;SDS011;4301;48.362;8.478;2023-06-10T10:22:34;4.55;;;4.25;;
8526;SDS011;4301;48.362;8.478;2023-06-10T10:25:05;5.97;;;5.40;;
8526;SDS011;4301;48.362;8.478;2023-06-10T10:27:40;6.80;;;5.60;;
8526;SDS011;4301;48.362;8.478;2023-06-10T10:30:11;5.78;;;5.30;;
8526;SDS011;4301;48.362;8.478;2023-06-10T10:32:42;5.75;;;5.25;;
8526;SDS011;4301;48.362;8.478;2023-06-10T10:35:17;5.32;;;4.90;;
8526;SDS011;4301;48.362;8.478;2023-06-10T10:37:48;5.20;;;4.80;;
8526;SDS011;4301;48.362;8.478;2023-06-10T10:40:15;5.15;;;4.75;;
8526;SDS011;4301;48.362;8.478;2023-06-10T10:42:44;5.45;;;4.95;;
8526;SDS011;4301;48.362;8.478;2023-06-10T10:45:11;5.10;;;4.70;;
8526;SDS011;4301;48.362;8.478;2023-06-10T10:47:39;5.20;;;4.80;;
8526;SDS011;4301;48.362;8.478;2023-06-10T10:50:14;5.40;;;4.90;;
8526;SDS011;4301;48.362;8.478;2023-06-10T10:52:51;5.18;;;4.78;;
8526;SDS011;4301;48.362;8.478;2023-06-10T10:55:20;6.22;;;4.38;;
8526;SDS011;4301;48.362;8.478;2023-06-10T10:57:57;5.30;;;4.80;;
8526;SDS011;4301;48.362;8.478;2023-06-10T11:00:26;5.15;;;4.60;;
8526;SDS011;4301;48.362;8.478;2023-06-10T11:02:58;4.70;;;4.25;;
8526;SDS011;4301;48.362;8.478;2023-06-10T11:05:36;4.30;;;4.00;;
8526;SDS011;4301;48.362;8.478;2023-06-10T11:08:04;4.20;;;3.90;;
8526;SDS011;4301;48.362;8.478;2023-06-10T11:10:33;4.78;;;4.38;;
8526;SDS011;4301;48.362;8.478;2023-06-10T11:13:06;6.03;;;4.65;;
8526;SDS011;4301;48.362;8.478;2023-06-10T11:15:38;4.65;;;3.90;;
8526;SDS011;4301;48.362;8.478;2023-06-10T11:18:13;4.43;;;4.00;;
8526;SDS011;4301;48.362;8.478;2023-06-10T11:21:02;4.00;;;3.80;;
8526;SDS011;4301;48.362;8.478;2023-06-10T11:23:40;4.40;;;4.10;;
8526;SDS011;4301;48.362;8.478;2023-06-10T11:26:12;4.25;;;3.80;;
8526;SDS011;4301;48.362;8.478;2023-06-10T11:29:09;3.63;;;3.42;;
8526;SDS011;4301;48.362;8.478;2023-06-10T11:31:48;4.07;;;3.63;;
8526;SDS011;4301;48.362;8.478;2023-06-10T11:34:20;4.03;;;3.72;;
8526;SDS011;4301;48.362;8.478;2023-06-10T11:36:49;4.28;;;3.97;;
8526;SDS011;4301;48.362;8.478;2023-06-10T11:39:19;4.05;;;3.75;;
8526;SDS011;4301;48.362;8.478;2023-06-10T11:41:48;3.95;;;3.65;;
8526;SDS011;4301;48.362;8.478;2023-06-10T11:44:18;4.50;;;4.10;;
8526;SDS011;4301;48.362;8.478;2023-06-10T11:46:45;5.22;;;3.80;;
8526;SDS011;4301;48.362;8.478;2023-06-10T11:49:14;4.20;;;3.90;;
8526;SDS011;4301;48.362;8.478;2023-06-10T11:51:41;4.47;;;4.03;;
8526;SDS011;4301;48.362;8.478;2023-06-10T11:54:14;4.90;;;3.83;;
8526;SDS011;4301;48.362;8.478;2023-06-10T11:56:42;4.40;;;4.10;;
8526;SDS011;4301;48.362;8.478;2023-06-10T11:59:09;3.97;;;3.75;;
8526;SDS011;4301;48.362;8.478;2023-06-10T12:01:41;3.88;;;3.60;;
8526;SDS011;4301;48.362;8.478;2023-06-10T12:04:10;4.03;;;3.72;;
8526;SDS011;4301;48.362;8.478;2023-06-10T12:06:39;4.43;;;4.10;;
8526;SDS011;4301;48.362;8.478;2023-06-10T12:09:07;4.50;;;4.10;;
8526;SDS011;4301;48.362;8.478;2023-06-10T12:11:39;4.25;;;3.95;;
8526;SDS011;4301;48.362;8.478;2023-06-10T12:14:06;4.30;;;4.00;;
8526;SDS011;4301;48.362;8.478;2023-06-10T12:16:33;4.55;;;4.20;;
8526;SDS011;4301;48.362;8.478;2023-06-10T12:19:04;3.70;;;3.50;;
8526;SDS011;4301;48.362;8.478;2023-06-10T12:21:32;3.90;;;3.60;;
8526;SDS011;4301;48.362;8.478;2023-06-10T12:24:04;4.15;;;3.85;;
8526;SDS011;4301;48.362;8.478;2023-06-10T12:26:36;4.70;;;4.30;;
8526;SDS011;4301;48.362;8.478;2023-06-10T12:29:21;4.80;;;4.13;;
8526;SDS011;4301;48.362;8.478;2023-06-10T12:31:52;4.43;;;3.95;;
8526;SDS011;4301;48.362;8.478;2023-06-10T12:34:21;4.82;;;3.85;;
8526;SDS011;4301;48.362;8.478;2023-06-10T12:37:04;3.90;;;3.60;;
8526;SDS011;4301;48.362;8.478;2023-06-10T12:39:33;3.80;;;3.60;;
8526;SDS011;4301;48.362;8.478;2023-06-10T12:42:00;4.00;;;3.75;;
8526;SDS011;4301;48.362;8.478;2023-06-10T12:44:28;3.80;;;3.55;;
8526;SDS011;4301;48.362;8.478;2023-06-10T12:46:56;3.92;;;3.50;;
8526;SDS011;4301;48.362;8.478;2023-06-10T12:49:25;3.85;;;3.55;;
8526;SDS011;4301;48.362;8.478;2023-06-10T12:51:52;3.65;;;3.45;;
8526;SDS011;4301;48.362;8.478;2023-06-10T12:54:20;4.30;;;4.00;;
8526;SDS011;4301;48.362;8.478;2023-06-10T12:56:47;4.35;;;4.00;;
8526;SDS011;4301;48.362;8.478;2023-06-10T12:59:14;4.78;;;3.92;;
8526;SDS011;4301;48.362;8.478;2023-06-10T13:01:40;4.22;;;3.92;;
8526;SDS011;4301;48.362;8.478;2023-06-10T13:04:07;4.15;;;3.85;;
8526;SDS011;4301;48.362;8.478;2023-06-10T13:06:36;4.30;;;4.00;;
8526;SDS011;4301;48.362;8.478;2023-06-10T13:09:04;3.80;;;3.60;;
8526;SDS011;4301;48.362;8.478;2023-06-10T13:11:33;3.90;;;3.60;;
8526;SDS011;4301;48.362;8.478;2023-06-10T13:14:00;4.28;;;3.80;;
8526;SDS011;4301;48.362;8.478;2023-06-10T13:16:27;4.20;;;3.90;;
8526;SDS011;4301;48.362;8.478;2023-06-10T13:18:55;3.83;;;3.53;;
8526;SDS011;4301;48.362;8.478;2023-06-10T13:21:22;4.15;;;3.85;;
8526;SDS011;4301;48.362;8.478;2023-06-10T13:23:51;3.92;;;3.72;;
8526;SDS011;4301;48.362;8.478;2023-06-10T13:26:18;4.10;;;3.80;;
8526;SDS011;4301;48.362;8.478;2023-06-10T13:28:45;3.58;;;3.35;;
8526;SDS011;4301;48.362;8.478;2023-06-10T13:31:12;4.60;;;3.47;;
8526;SDS011;4301;48.362;8.478;2023-06-10T13:33:39;4.00;;;3.72;;
8526;SDS011;4301;48.362;8.478;2023-06-10T13:36:08;5.50;;;3.83;;
8526;SDS011;4301;48.362;8.478;2023-06-10T13:38:35;4.25;;;3.90;;
8526;SDS011;4301;48.362;8.478;2023-06-10T13:41:03;4.20;;;3.90;;
8526;SDS011;4301;48.362;8.478;2023-06-10T13:43:31;4.70;;;4.30;;
8526;SDS011;4301;48.362;8.478;2023-06-10T13:45:57;3.65;;;3.45;;
8526;SDS011;4301;48.362;8.478;2023-06-10T13:48:25;4.13;;;3.83;;
8526;SDS011;4301;48.362;8.478;2023-06-10T13:50:52;3.50;;;3.20;;
8526;SDS011;4301;48.362;8.478;2023-06-10T13:53:19;3.72;;;3.50;;
8526;SDS011;4301;48.362;8.478;2023-06-10T13:55:46;4.28;;;3.88;;
8526;SDS011;4301;48.362;8.478;2023-06-10T13:58:14;4.50;;;4.20;;
8526;SDS011;4301;48.362;8.478;2023-06-10T14:00:41;4.30;;;3.90;;
8526;SDS011;4301;48.362;8.478;2023-06-10T14:03:08;4.40;;;4.10;;
8526;SDS011;4301;48.362;8.478;2023-06-10T14:05:35;3.92;;;3.72;;
8526;SDS011;4301;48.362;8.478;2023-06-10T14:08:02;4.35;;;3.75;;
8526;SDS011;4301;48.362;8.478;2023-06-10T14:10:29;4.22;;;3.92;;
8526;SDS011;4301;48.362;8.478;2023-06-10T14:12:56;4.20;;;3.80;;
8526;SDS011;4301;48.362;8.478;2023-06-10T14:15:24;4.10;;;3.72;;
8526;SDS011;4301;48.362;8.478;2023-06-10T14:17:51;3.80;;;3.50;;
8526;SDS011;4301;48.362;8.478;2023-06-10T14:20:18;3.90;;;3.60;;
8526;SDS011;4301;48.362;8.478;2023-06-10T14:22:45;3.92;;;3.63;;
8526;SDS011;4301;48.362;8.478;2023-06-10T14:25:12;3.70;;;3.47;;
8526;SDS011;4301;48.362;8.478;2023-06-10T14:27:39;3.80;;;3.50;;
8526;SDS011;4301;48.362;8.478;2023-06-10T14:30:06;3.88;;;3.58;;
8526;SDS011;4301;48.362;8.478;2023-06-10T14:32:35;3.60;;;3.40;;
8526;SDS011;4301;48.362;8.478;2023-06-10T14:35:02;4.25;;;3.95;;
8526;SDS011;4301;48.362;8.478;2023-06-10T14:37:29;3.80;;;3.60;;
8526;SDS011;4301;48.362;8.478;2023-06-10T14:39:56;3.90;;;3.60;;
8526;SDS011;4301;48.362;8.478;2023-06-10T14:42:23;3.90;;;3.60;;
8526;SDS011;4301;48.362;8.478;2023-06-10T14:44:50;3.90;;;3.60;;
8526;SDS011;4301;48.362;8.478;2023-06-10T14:47:17;4.22;;;3.83;;
8526;SDS011;4301;48.362;8.478;2023-06-10T14:49:46;3.70;;;3.40;;
8526;SDS011;4301;48.362;8.478;2023-06-10T14:52:13;3.65;;;3.35;;
8526;SDS011;4301;48.362;8.478;2023-06-10T14:54:40;3.63;;;3.42;;
8526;SDS011;4301;48.362;8.478;2023-06-10T14:57:06;3.92;;;3.63;;
8526;SDS011;4301;48.362;8.478;2023-06-10T14:59:33;4.30;;;3.90;;
8526;SDS011;4301;48.362;8.478;2023-06-10T15:02:00;4.53;;;3.95;;
8526;SDS011;4301;48.362;8.478;2023-06-10T15:04:27;4.05;;;3.85;;
8526;SDS011;4301;48.362;8.478;2023-06-10T15:06:56;3.63;;;3.42;;
8526;SDS011;4301;48.362;8.478;2023-06-10T15:09:23;3.22;;;3.03;;
8526;SDS011;4301;48.362;8.478;2023-06-10T15:11:49;3.38;;;3.17;;
8526;SDS011;4301;48.362;8.478;2023-06-10T15:14:16;3.53;;;3.33;;
8526;SDS011;4301;48.362;8.478;2023-06-10T15:16:43;3.60;;;3.30;;
8526;SDS011;4301;48.362;8.478;2023-06-10T15:19:10;3.63;;;3.35;;
8526;SDS011;4301;48.362;8.478;2023-06-10T15:21:37;3.60;;;3.30;;
8526;SDS011;4301;48.362;8.478;2023-06-10T15:24:06;3.67;;;3.47;;
8526;SDS011;4301;48.362;8.478;2023-06-10T15:26:33;3.97;;;3.72;;